createdAt,value
2023-01-06T00:02:12.073Z,5.72
2023-01-06T00:04:38.816Z,5.71
2023-01-06T00:07:05.593Z,5.68
2023-01-06T00:09:34.246Z,5.64
2023-01-06T00:12:01.376Z,5.59
2023-01-06T00:14:28.076Z,5.54
2023-01-06T00:16:54.758Z,5.51
2023-01-06T00:19:21.506Z,5.49
2023-01-06T00:21:48.168Z,5.47
2023-01-06T00:24:14.834Z,5.44
2023-01-06T00:26:41.522Z,5.42
2023-01-06T00:29:10.031Z,5.41
2023-01-06T00:31:39.780Z,5.41
2023-01-06T00:34:09.368Z,5.40
2023-01-06T00:36:36.095Z,5.39
2023-01-06T00:39:05.679Z,5.38
2023-01-06T00:41:51.120Z,5.39
2023-01-06T00:44:17.852Z,5.38
2023-01-06T00:46:44.616Z,5.38
2023-01-06T00:49:11.236Z,5.38
2023-01-06T00:51:39.429Z,5.34
2023-01-06T00:54:07.566Z,5.36
2023-01-06T00:56:42.225Z,5.36
2023-01-06T00:59:09.591Z,5.35
2023-01-06T01:01:36.367Z,5.35
2023-01-06T01:04:03.205Z,5.34
2023-01-06T01:06:29.967Z,5.33
2023-01-06T01:08:58.735Z,5.32
2023-01-06T01:11:44.164Z,5.32
2023-01-06T01:14:11.500Z,5.30
2023-01-06T01:16:38.464Z,5.30
2023-01-06T01:19:05.445Z,5.29
2023-01-06T01:21:32.219Z,5.28
2023-01-06T01:23:58.938Z,5.26
2023-01-06T01:26:25.625Z,5.25
2023-01-06T01:28:52.301Z,5.24
2023-01-06T01:31:20.501Z,5.24
2023-01-06T01:33:47.335Z,5.20
2023-01-06T01:36:14.761Z,5.11
2023-01-06T01:38:41.526Z,5.01
2023-01-06T01:41:09.097Z,4.91
2023-01-06T01:43:46.760Z,4.69
2023-01-06T01:46:14.979Z,4.50
2023-01-06T01:48:41.744Z,4.28
2023-01-06T01:51:16.437Z,4.11
2023-01-06T01:53:46.936Z,3.98
2023-01-06T01:56:17.809Z,3.85
2023-01-06T01:59:09.221Z,3.69
2023-01-06T02:01:36.062Z,3.47
2023-01-06T02:04:03.209Z,3.32
2023-01-06T02:06:29.930Z,3.19
2023-01-06T02:09:00.298Z,3.07
2023-01-06T02:11:27.491Z,2.95
2023-01-06T02:13:57.806Z,2.84
2023-01-06T02:16:39.808Z,2.75
2023-01-06T02:19:20.272Z,2.67
2023-01-06T02:22:08.277Z,2.53
2023-01-06T02:24:44.121Z,2.43
2023-01-06T02:27:21.379Z,2.31
2023-01-06T02:30:23.640Z,2.22
2023-01-06T02:35:39.420Z,2.11
2023-01-06T02:38:55.211Z,2.02
2023-01-06T02:41:29.705Z,1.94
2023-01-06T02:44:32.120Z,1.86
2023-01-06T02:47:21.119Z,1.79
2023-01-06T02:49:52.310Z,1.71
2023-01-06T02:52:33.455Z,1.65
2023-01-06T02:55:22.783Z,1.62
2023-01-06T02:57:57.363Z,1.59
2023-01-06T03:00:39.096Z,1.54
2023-01-06T03:03:09.252Z,1.50
2023-01-06T03:05:36.571Z,1.47
2023-01-06T03:08:07.039Z,1.45
2023-01-06T03:10:33.766Z,1.44
2023-01-06T03:13:07.319Z,1.43
2023-01-06T03:15:34.452Z,1.42
2023-01-06T03:18:01.709Z,1.41
2023-01-06T03:20:28.522Z,1.42
2023-01-06T03:22:55.189Z,1.40
2023-01-06T03:25:22.232Z,1.39
2023-01-06T03:27:49.328Z,1.37
2023-01-06T03:30:16.128Z,1.33
2023-01-06T03:32:56.389Z,1.31
2023-01-06T03:35:52.007Z,1.29
2023-01-06T03:38:34.541Z,1.26
2023-01-06T03:41:10.756Z,1.23
2023-01-06T03:43:42.100Z,1.18
2023-01-06T03:46:30.753Z,1.16
2023-01-06T03:49:04.704Z,1.17
2023-01-06T03:51:50.413Z,1.17
2023-01-06T03:54:30.739Z,1.15
2023-01-06T03:57:06.125Z,1.07
2023-01-06T03:59:35.144Z,1.04
2023-01-06T04:02:02.951Z,1.02
2023-01-06T04:04:30.327Z,0.99
2023-01-06T04:06:57.917Z,1.01
2023-01-06T04:09:25.213Z,0.98
2023-01-06T04:12:10.747Z,0.96
2023-01-06T04:14:38.462Z,0.95
2023-01-06T04:17:05.730Z,0.93
2023-01-06T04:19:32.828Z,0.91
2023-01-06T04:21:59.883Z,0.89
2023-01-06T04:24:28.529Z,0.84
2023-01-06T04:26:56.013Z,0.86
2023-01-06T04:29:22.802Z,0.83
2023-01-06T04:31:50.127Z,0.81
2023-01-06T04:34:16.856Z,0.78
2023-01-06T04:36:44.856Z,0.78
2023-01-06T04:39:11.576Z,0.79
2023-01-06T04:41:38.294Z,0.78
2023-01-06T04:44:05.177Z,0.77
2023-01-06T04:46:31.785Z,0.75
2023-01-06T04:48:58.523Z,0.71
2023-01-06T04:51:25.267Z,0.70
2023-01-06T04:53:51.989Z,0.68
2023-01-06T04:56:20.707Z,0.65
2023-01-06T04:58:47.499Z,0.63
2023-01-06T05:01:14.312Z,0.63
2023-01-06T05:03:41.193Z,0.63
2023-01-06T05:06:11.632Z,0.65
2023-01-06T05:08:39.106Z,0.67
2023-01-06T05:11:11.499Z,0.68
2023-01-06T05:13:38.410Z,0.65
2023-01-06T05:16:08.785Z,0.66
2023-01-06T05:18:35.607Z,0.62
2023-01-06T05:21:02.219Z,0.61
2023-01-06T05:23:28.916Z,0.60
2023-01-06T05:25:55.716Z,0.57
2023-01-06T05:28:22.540Z,0.53
2023-01-06T05:30:49.130Z,0.53
2023-01-06T05:33:15.834Z,0.52
2023-01-06T05:35:42.542Z,0.52
2023-01-06T05:38:09.224Z,0.51
2023-01-06T05:40:36.004Z,0.51
2023-01-06T05:43:02.725Z,0.51
2023-01-06T05:45:29.428Z,0.52
2023-01-06T05:47:57.867Z,0.52
2023-01-06T05:50:24.638Z,0.50
2023-01-06T05:52:51.289Z,0.49
2023-01-06T05:55:18.013Z,0.48
2023-01-06T05:57:44.705Z,0.47
2023-01-06T06:00:12.075Z,0.44
2023-01-06T06:02:41.557Z,0.41
2023-01-06T06:05:08.369Z,0.38
2023-01-06T06:07:34.984Z,0.38
2023-01-06T06:10:02.071Z,0.38
2023-01-06T06:12:28.939Z,0.35
2023-01-06T06:14:55.856Z,0.33
2023-01-06T06:17:22.661Z,0.30
2023-01-06T06:19:49.335Z,0.29
2023-01-06T06:22:16.063Z,0.27
2023-01-06T06:24:42.721Z,0.24
2023-01-06T06:27:09.520Z,0.24
2023-01-06T06:29:36.127Z,0.21
2023-01-06T06:32:02.800Z,0.19
2023-01-06T06:34:29.498Z,0.16
2023-01-06T06:36:56.201Z,0.11
2023-01-06T06:39:23.196Z,0.07
2023-01-06T06:41:49.980Z,0.06
2023-01-06T06:44:16.705Z,0.06
2023-01-06T06:46:43.429Z,0.07
2023-01-06T06:49:10.217Z,0.06
2023-01-06T06:51:37.064Z,0.04
2023-01-06T06:54:04.517Z,0.01
2023-01-06T06:56:31.211Z,-0.01
2023-01-06T06:58:57.903Z,-0.01
2023-01-06T07:01:24.742Z,-0.02
2023-01-06T07:03:51.433Z,-0.03
2023-01-06T07:06:20.011Z,-0.04
2023-01-06T07:08:46.998Z,-0.06
2023-01-06T07:11:13.830Z,-0.09
2023-01-06T07:13:40.540Z,-0.13
2023-01-06T07:16:07.493Z,-0.19
2023-01-06T07:18:34.151Z,-0.26
2023-01-06T07:21:00.920Z,-0.31
2023-01-06T07:23:27.628Z,-0.38
2023-01-06T07:25:55.125Z,-0.44
2023-01-06T07:28:22.094Z,-0.46
2023-01-06T07:30:48.847Z,-0.49
2023-01-06T07:33:15.577Z,-0.50
2023-01-06T07:35:42.483Z,-0.50
2023-01-06T07:38:09.128Z,-0.50
2023-01-06T07:40:36.414Z,-0.49
2023-01-06T07:43:06.856Z,-0.51
2023-01-06T07:45:33.693Z,-0.53
2023-01-06T07:48:00.323Z,-0.53
2023-01-06T07:50:27.175Z,-0.55
2023-01-06T07:52:53.833Z,-0.54
2023-01-06T07:55:20.805Z,-0.54
2023-01-06T07:57:47.509Z,-0.55
2023-01-06T08:00:14.920Z,-0.54
2023-01-06T08:02:41.682Z,-0.57
2023-01-06T08:05:08.470Z,-0.61
2023-01-06T08:07:35.500Z,-0.63
2023-01-06T08:10:02.313Z,-0.63
2023-01-06T08:12:28.980Z,-0.64
2023-01-06T08:14:55.694Z,-0.63
2023-01-06T08:17:22.364Z,-0.66
2023-01-06T08:19:49.056Z,-0.71
2023-01-06T08:22:15.711Z,-0.78
2023-01-06T08:24:42.382Z,-0.76
2023-01-06T08:27:09.265Z,-0.77
2023-01-06T08:29:35.885Z,-0.75
2023-01-06T08:32:10.260Z,-0.73
2023-01-06T08:34:38.110Z,-0.77
2023-01-06T08:37:04.852Z,-0.79
2023-01-06T08:39:31.618Z,-0.83
2023-01-06T08:41:58.328Z,-0.88
2023-01-06T08:44:25.039Z,-0.91
2023-01-06T08:46:51.763Z,-0.92
2023-01-06T08:49:18.539Z,-0.92
2023-01-06T08:51:45.259Z,-0.93
2023-01-06T08:54:12.009Z,-0.92
2023-01-06T08:56:39.070Z,-0.93
2023-01-06T08:59:05.820Z,-0.94
2023-01-06T09:01:34.502Z,-0.96
2023-01-06T09:04:02.816Z,-0.97
2023-01-06T09:06:29.608Z,-0.99
2023-01-06T09:08:57.005Z,-0.98
2023-01-06T09:11:23.795Z,-0.99
2023-01-06T09:13:53.482Z,-0.94
2023-01-06T09:16:20.403Z,-0.96
2023-01-06T09:18:50.423Z,-0.97
2023-01-06T09:21:18.144Z,-0.95
2023-01-06T09:23:44.917Z,-0.94
2023-01-06T09:26:11.615Z,-0.97
2023-01-06T09:28:38.334Z,-1.02
2023-01-06T09:31:05.210Z,-1.10
2023-01-06T09:33:31.870Z,-1.14
2023-01-06T09:35:58.565Z,-1.18
2023-01-06T09:38:26.323Z,-1.26
2023-01-06T09:41:08.257Z,-1.33
2023-01-06T09:43:55.556Z,-1.39
2023-01-06T09:46:28.860Z,-1.44
2023-01-06T09:49:01.743Z,-1.45
2023-01-06T09:51:28.427Z,-1.47
2023-01-06T09:54:34.965Z,-1.47
2023-01-06T09:57:06.362Z,-1.50
2023-01-06T09:59:36.174Z,-1.52
2023-01-06T10:02:03.011Z,-1.59
2023-01-06T10:04:29.958Z,-1.59
2023-01-06T10:07:15.439Z,-1.63
2023-01-06T10:10:14.934Z,-1.71
2023-01-06T10:12:47.511Z,-1.74
2023-01-06T10:15:36.780Z,-1.76
2023-01-06T10:18:26.717Z,-1.73
2023-01-06T10:21:07.575Z,-1.73
2023-01-06T10:23:37.286Z,-1.72
2023-01-06T10:26:22.563Z,-1.75
2023-01-06T10:28:53.275Z,-1.80
2023-01-06T10:31:22.288Z,-1.83
2023-01-06T10:33:51.689Z,-1.87
2023-01-06T10:36:21.122Z,-1.89
2023-01-06T10:38:49.844Z,-1.91
2023-01-06T10:41:43.416Z,-1.94
2023-01-06T10:44:11.055Z,-1.97
2023-01-06T10:46:39.225Z,-2.01
2023-01-06T10:49:12.669Z,-2.08
2023-01-06T10:51:40.679Z,-2.11
2023-01-06T10:54:10.264Z,-2.12
2023-01-06T10:56:37.030Z,-2.14
2023-01-06T10:59:10.466Z,-2.16
2023-01-06T11:01:51.499Z,-2.17
2023-01-06T11:04:19.875Z,-2.19
2023-01-06T11:06:56.750Z,-2.19
2023-01-06T11:09:25.419Z,-2.19
2023-01-06T11:11:52.512Z,-2.23
2023-01-06T11:14:20.725Z,-2.31
2023-01-06T11:17:14.553Z,-2.35
2023-01-06T11:19:42.797Z,-2.32
2023-01-06T11:22:37.115Z,-2.30
2023-01-06T11:25:21.901Z,-2.29
2023-01-06T11:27:52.548Z,-2.28
2023-01-06T11:30:26.610Z,-2.32
2023-01-06T11:32:53.564Z,-2.35
2023-01-06T11:35:21.466Z,-2.41
2023-01-06T11:37:48.178Z,-2.39
2023-01-06T11:40:21.327Z,-2.44
2023-01-06T11:42:49.295Z,-2.45
2023-01-06T11:45:30.363Z,-2.48
2023-01-06T11:47:57.075Z,-2.47
2023-01-06T11:50:23.740Z,-2.43
2023-01-06T11:53:00.779Z,-2.42
2023-01-06T11:55:27.526Z,-2.43
2023-01-06T11:58:04.343Z,-2.50
2023-01-06T12:00:46.817Z,-2.48
2023-01-06T12:03:21.441Z,-2.50
2023-01-06T12:06:07.040Z,-2.51
2023-01-06T12:08:40.655Z,-2.55
2023-01-06T12:11:24.269Z,-2.57
2023-01-06T12:14:08.848Z,-2.58
2023-01-06T12:16:49.368Z,-2.57
2023-01-06T12:19:36.889Z,-2.55
2023-01-06T12:22:03.675Z,-2.54
2023-01-06T12:24:32.206Z,-2.54
2023-01-06T12:27:01.322Z,-2.56
2023-01-06T12:29:27.994Z,-2.61
2023-01-06T12:32:04.965Z,-2.65
2023-01-06T12:34:36.596Z,-2.67
2023-01-06T12:37:12.504Z,-2.74
2023-01-06T12:39:50.748Z,-2.76
2023-01-06T12:42:26.484Z,-2.77
2023-01-06T12:45:12.968Z,-2.74
2023-01-06T12:47:46.916Z,-2.73
2023-01-06T12:50:33.189Z,-2.73
2023-01-06T12:53:20.620Z,-2.74
2023-01-06T12:55:57.761Z,-2.83
2023-01-06T12:58:36.747Z,-2.86
2023-01-06T13:01:16.920Z,-2.89
2023-01-06T13:04:11.705Z,-2.98
2023-01-06T13:06:44.331Z,-3.00
2023-01-06T13:09:54.570Z,-3.02
2023-01-06T13:12:30.207Z,-3.02
2023-01-06T13:15:03.842Z,-3.04
2023-01-06T13:17:36.558Z,-3.06
2023-01-06T13:20:06.032Z,-3.10
2023-01-06T13:22:41.661Z,-3.17
2023-01-06T13:25:51.973Z,-3.25
2023-01-06T13:28:39.905Z,-3.35
2023-01-06T13:31:26.150Z,-3.39
2023-01-06T13:34:14.559Z,-3.42
2023-01-06T13:36:49.861Z,-3.46
2023-01-06T13:39:23.700Z,-3.48
2023-01-06T13:41:55.077Z,-3.49
2023-01-06T13:44:24.788Z,-3.48
2023-01-06T13:46:52.632Z,-3.48
2023-01-06T13:49:19.527Z,-3.48
2023-01-06T13:51:46.267Z,-3.50
2023-01-06T13:54:40.795Z,-3.57
2023-01-06T13:57:22.314Z,-3.62
2023-01-06T13:59:52.848Z,-3.64
2023-01-06T14:02:34.787Z,-3.65
2023-01-06T14:05:05.707Z,-3.65
2023-01-06T14:07:36.684Z,-3.62
2023-01-06T14:10:05.634Z,-3.63
2023-01-06T14:12:33.381Z,-3.64
2023-01-06T14:15:01.863Z,-3.63
2023-01-06T14:17:41.765Z,-3.61
2023-01-06T14:20:30.000Z,-3.60
2023-01-06T14:23:00.816Z,-3.62
2023-01-06T14:25:27.558Z,-3.66
2023-01-06T14:27:54.230Z,-3.69
2023-01-06T14:30:30.696Z,-3.71
2023-01-06T14:32:59.461Z,-3.73
2023-01-06T14:35:43.833Z,-3.73
2023-01-06T14:38:19.737Z,-3.73
2023-01-06T14:40:51.946Z,-3.72
2023-01-06T14:43:35.106Z,-3.74
2023-01-06T14:46:41.607Z,-3.74
2023-01-06T14:49:14.965Z,-3.76
2023-01-06T14:52:39.205Z,-3.82
2023-01-06T14:55:10.908Z,-3.86
2023-01-06T14:57:41.041Z,-3.84
2023-01-06T15:00:24.589Z,-3.88
2023-01-06T15:02:53.467Z,-3.95
2023-01-06T15:05:24.530Z,-3.97
2023-01-06T15:07:58.930Z,-4.03
2023-01-06T15:10:27.025Z,-4.09
2023-01-06T15:12:57.005Z,-4.12
2023-01-06T15:15:33.340Z,-4.15
2023-01-06T15:18:01.296Z,-4.14
2023-01-06T15:20:31.336Z,-4.14
2023-01-06T15:22:59.885Z,-4.15
2023-01-06T15:25:28.057Z,-4.13
2023-01-06T15:27:55.811Z,-4.10
2023-01-06T15:30:24.275Z,-4.11
2023-01-06T15:32:51.511Z,-4.07
2023-01-06T15:35:24.143Z,-4.10
2023-01-06T15:37:58.083Z,-4.11
2023-01-06T15:40:24.783Z,-4.13
2023-01-06T15:42:51.449Z,-4.18
2023-01-06T15:45:29.297Z,-4.21
2023-01-06T15:47:56.471Z,-4.21
2023-01-06T15:50:25.570Z,-4.23
2023-01-06T15:52:55.273Z,-4.18
2023-01-06T15:55:35.765Z,-4.23
2023-01-06T15:58:10.350Z,-4.26
2023-01-06T16:00:50.569Z,-4.29
2023-01-06T16:03:18.482Z,-4.33
2023-01-06T16:05:48.735Z,-4.38
2023-01-06T16:08:24.297Z,-4.41
2023-01-06T16:11:47.637Z,-4.47
2023-01-06T16:14:28.699Z,-4.50
2023-01-06T16:17:18.738Z,-4.48
2023-01-06T16:19:46.710Z,-4.48
2023-01-06T16:22:38.272Z,-4.49
2023-01-06T16:25:18.623Z,-4.51
2023-01-06T16:27:49.747Z,-4.51
2023-01-06T16:30:23.845Z,-4.55
2023-01-06T16:32:52.633Z,-4.59
2023-01-06T16:35:23.867Z,-4.59
2023-01-06T16:37:50.650Z,-4.56
2023-01-06T16:40:17.691Z,-4.51
2023-01-06T16:42:44.574Z,-4.51
2023-01-06T16:45:28.332Z,-4.58
2023-01-06T16:47:55.265Z,-4.66
2023-01-06T16:50:31.095Z,-4.71
2023-01-06T16:53:21.201Z,-4.72
2023-01-06T16:55:52.559Z,-4.72
2023-01-06T16:58:20.867Z,-4.72
2023-01-06T17:00:52.254Z,-4.73
2023-01-06T17:03:21.037Z,-4.78
2023-01-06T17:05:47.767Z,-4.80
2023-01-06T17:08:15.559Z,-4.79
2023-01-06T17:10:42.819Z,-4.81
2023-01-06T17:13:31.819Z,-4.89
2023-01-06T17:16:10.806Z,-4.86
2023-01-06T17:18:59.373Z,-4.86
2023-01-06T17:21:29.240Z,-4.96
2023-01-06T17:24:16.753Z,-4.97
2023-01-06T17:26:52.785Z,-5.02
2023-01-06T17:29:20.334Z,-5.06
2023-01-06T17:31:48.989Z,-5.11
2023-01-06T17:34:25.071Z,-5.13
2023-01-06T17:36:52.943Z,-5.18
2023-01-06T17:39:21.676Z,-5.21
2023-01-06T17:41:48.542Z,-5.21
2023-01-06T17:44:19.735Z,-5.20
2023-01-06T17:46:46.556Z,-5.22
2023-01-06T17:49:19.334Z,-5.27
2023-01-06T17:51:46.272Z,-5.32
2023-01-06T17:54:38.147Z,-5.32
2023-01-06T17:57:19.001Z,-5.36
2023-01-06T17:59:46.004Z,-5.37
2023-01-06T18:02:35.496Z,-5.40
2023-01-06T18:05:34.754Z,-5.45
2023-01-06T18:08:07.495Z,-5.47
2023-01-06T18:10:35.717Z,-5.51
2023-01-06T18:13:35.180Z,-5.47
2023-01-06T18:16:01.975Z,-5.48
2023-01-06T18:18:33.143Z,-5.52
2023-01-06T18:21:16.125Z,-5.57
2023-01-06T18:23:47.215Z,-5.62
2023-01-06T18:26:26.182Z,-5.71
2023-01-06T18:28:57.628Z,-5.75
2023-01-06T18:31:24.401Z,-5.81
2023-01-06T18:33:51.125Z,-5.85
2023-01-06T18:36:17.823Z,-5.93
2023-01-06T18:38:45.341Z,-6.03
2023-01-06T18:41:12.322Z,-6.09
2023-01-06T18:43:39.255Z,-6.16
2023-01-06T18:46:16.507Z,-6.20
2023-01-06T18:48:43.197Z,-6.20
2023-01-06T18:51:19.917Z,-6.16
2023-01-06T18:53:49.817Z,-6.12
2023-01-06T18:56:27.091Z,-6.08
2023-01-06T18:58:54.612Z,-6.09
2023-01-06T19:01:38.468Z,-6.11
2023-01-06T19:04:11.323Z,-6.12
2023-01-06T19:07:09.993Z,-6.15
2023-01-06T19:09:39.992Z,-6.15
2023-01-06T19:12:30.315Z,-6.15
2023-01-06T19:14:59.486Z,-6.17
2023-01-06T19:17:33.983Z,-6.19
2023-01-06T19:20:01.452Z,-6.21
2023-01-06T19:22:28.906Z,-6.22
2023-01-06T19:24:57.351Z,-6.28
2023-01-06T19:27:25.469Z,-6.37
2023-01-06T19:29:52.808Z,-6.32
2023-01-06T19:32:19.536Z,-6.28
2023-01-06T19:34:46.262Z,-6.24
2023-01-06T19:37:17.183Z,-6.22
2023-01-06T19:39:47.516Z,-6.22
2023-01-06T19:42:30.204Z,-6.20
2023-01-06T19:44:58.301Z,-6.22
2023-01-06T19:47:29.161Z,-6.27
2023-01-06T19:49:59.917Z,-6.30
2023-01-06T19:52:34.850Z,-6.31
2023-01-06T19:55:25.349Z,-6.40
2023-01-06T19:57:57.498Z,-6.50
2023-01-06T20:00:43.145Z,-6.56
2023-01-06T20:03:29.001Z,-6.59
2023-01-06T20:05:55.908Z,-6.60
2023-01-06T20:08:23.227Z,-6.64
2023-01-06T20:10:49.923Z,-6.64
2023-01-06T20:13:16.824Z,-6.65
2023-01-06T20:15:43.627Z,-6.63
2023-01-06T20:18:10.305Z,-6.58
2023-01-06T20:20:37.177Z,-6.54
2023-01-06T20:23:04.351Z,-6.50
2023-01-06T20:25:31.150Z,-6.44
2023-01-06T20:27:58.155Z,-6.37
2023-01-06T20:30:24.941Z,-6.36
2023-01-06T20:32:51.602Z,-6.36
2023-01-06T20:35:20.185Z,-6.36
2023-01-06T20:37:46.981Z,-6.37
2023-01-06T20:40:13.709Z,-6.42
2023-01-06T20:42:40.457Z,-6.43
2023-01-06T20:45:07.305Z,-6.43
2023-01-06T20:47:34.008Z,-6.45
2023-01-06T20:50:00.806Z,-6.45
2023-01-06T20:52:27.493Z,-6.43
2023-01-06T20:54:54.290Z,-6.42
2023-01-06T20:57:21.013Z,-6.42
2023-01-06T20:59:47.932Z,-6.43
2023-01-06T21:02:14.796Z,-6.42
2023-01-06T21:04:41.762Z,-6.38
2023-01-06T21:07:08.508Z,-6.34
2023-01-06T21:09:35.266Z,-6.34
2023-01-06T21:12:01.942Z,-6.33
2023-01-06T21:14:29.558Z,-6.32
2023-01-06T21:16:56.317Z,-6.29
2023-01-06T21:19:22.951Z,-6.28
2023-01-06T21:21:49.914Z,-6.31
2023-01-06T21:24:16.877Z,-6.40
2023-01-06T21:26:43.719Z,-6.42
2023-01-06T21:29:10.459Z,-6.41
2023-01-06T21:31:37.271Z,-6.44
2023-01-06T21:34:03.925Z,-6.40
2023-01-06T21:36:30.687Z,-6.39
2023-01-06T21:38:57.355Z,-6.41
2023-01-06T21:41:42.956Z,-6.40
2023-01-06T21:44:09.656Z,-6.44
2023-01-06T21:46:39.863Z,-6.40
2023-01-06T21:49:06.889Z,-6.43
2023-01-06T21:51:34.001Z,-6.46
2023-01-06T21:54:00.719Z,-6.48
2023-01-06T21:56:27.413Z,-6.50
2023-01-06T21:58:55.316Z,-6.53
2023-01-06T22:01:22.264Z,-6.57
2023-01-06T22:03:49.084Z,-6.61
2023-01-06T22:06:18.371Z,-6.66
2023-01-06T22:08:46.251Z,-6.68
2023-01-06T22:11:13.235Z,-6.69
2023-01-06T22:13:39.885Z,-6.68
2023-01-06T22:16:07.464Z,-6.67
2023-01-06T22:18:34.481Z,-6.68
2023-01-06T22:21:01.198Z,-6.68
2023-01-06T22:23:27.976Z,-6.69
2023-01-06T22:25:54.871Z,-6.73
2023-01-06T22:28:21.575Z,-6.78
2023-01-06T22:30:48.319Z,-6.81
2023-01-06T22:33:15.545Z,-6.83
2023-01-06T22:35:42.328Z,-6.84
2023-01-06T22:38:09.056Z,-6.84
2023-01-06T22:40:35.916Z,-6.84
2023-01-06T22:43:04.038Z,-6.81
2023-01-06T22:45:30.819Z,-6.83
2023-01-06T22:47:57.426Z,-6.86
2023-01-06T22:50:24.139Z,-6.85
2023-01-06T22:52:50.913Z,-6.87
2023-01-06T22:55:17.724Z,-6.89
2023-01-06T22:57:44.359Z,-6.92
2023-01-06T23:00:14.123Z,-6.97
2023-01-06T23:02:41.093Z,-7.07
2023-01-06T23:05:08.304Z,-7.07
2023-01-06T23:07:42.385Z,-7.11
2023-01-06T23:10:10.357Z,-7.16
2023-01-06T23:12:37.980Z,-7.15
2023-01-06T23:15:05.272Z,-7.15
2023-01-06T23:17:32.020Z,-7.15
2023-01-06T23:19:58.607Z,-7.16
2023-01-06T23:22:25.415Z,-7.16
2023-01-06T23:24:52.338Z,-7.17
2023-01-06T23:27:19.038Z,-7.19
2023-01-06T23:29:46.284Z,-7.21
2023-01-06T23:32:13.065Z,-7.23
2023-01-06T23:34:39.707Z,-7.27
2023-01-06T23:37:06.398Z,-7.29
2023-01-06T23:39:33.019Z,-7.30
2023-01-06T23:41:59.738Z,-7.29
2023-01-06T23:44:26.578Z,-7.28
2023-01-06T23:46:53.384Z,-7.26
2023-01-06T23:49:20.059Z,-7.24
2023-01-06T23:51:46.772Z,-7.24
2023-01-06T23:54:13.413Z,-7.25
2023-01-06T23:56:40.245Z,-7.27
2023-01-06T23:59:10.034Z,-7.31
